Time;durP1;ratioP1;P1;durP2;ratioP2;P2;SDS_P1;SDS_P2;PMS_P1;PMS_P2;Temp;Humidity;BMP_temperature;BMP_pressure;BME280_temperature;BME280_humidity;BME280_pressure;Samples;Min_cycle;Max_cycle;Signal;HPM_P1;HPM_P2
2023/10/13 00:00:42;;;;;;;31.13;12.77;;;12.40;99.90;;;;;;4995925;28;20506;-59
2023/10/13 00:03:18;;;;;;;35.03;13.50;;;12.40;99.90;;;;;;5008824;28;20050;-59
2023/10/13 00:05:47;;;;;;;32.60;13.13;;;12.40;99.90;;;;;;5005923;28;20042;-58
2023/10/13 00:08:15;;;;;;;26.40;12.48;;;12.40;99.90;;;;;;5004427;28;20410;-59
2023/10/13 00:10:43;;;;;;;25.23;11.73;;;12.40;99.90;;;;;;4997817;28;20370;-59
2023/10/13 00:13:15;;;;;;;25.90;12.40;;;12.30;99.90;;;;;;4998355;28;20413;-59
2023/10/13 00:18:34;;;;;;;31.42;12.13;;;12.40;99.90;;;;;;4989261;28;20059;-58
2023/10/13 00:21:12;;;;;;;31.70;12.40;;;12.40;99.90;;;;;;4988206;28;20053;-59
2023/10/13 00:23:52;;;;;;;30.38;12.98;;;12.40;99.90;;;;;;5004279;28;20049;-58
2023/10/13 00:26:29;;;;;;;29.10;12.18;;;12.40;99.90;;;;;;5010639;28;20057;-60
2023/10/13 00:29:29;;;;;;;28.73;12.27;;;12.40;99.90;;;;;;4998395;28;20111;-58
2023/10/13 00:31:52;;;;;;;25.08;11.77;;;12.40;99.90;;;;;;4991830;28;20053;-60
2023/10/13 00:34:27;;;;;;;29.33;12.27;;;12.40;99.90;;;;;;5003592;28;20045;-59
2023/10/13 00:37:18;;;;;;;26.52;11.70;;;12.40;99.90;;;;;;5000751;28;20041;-59
2023/10/13 00:39:45;;;;;;;23.58;11.90;;;12.40;99.90;;;;;;5010182;28;20050;-60
2023/10/13 00:42:50;;;;;;;29.25;12.45;;;12.40;99.90;;;;;;4996547;28;20042;-59
2023/10/13 00:45:04;;;;;;;31.05;12.02;;;12.40;99.90;;;;;;5005009;28;20045;-59
2023/10/13 00:47:48;;;;;;;32.88;12.20;;;12.40;99.90;;;;;;5004956;28;20057;-59
2023/10/13 00:50:17;;;;;;;27.95;12.18;;;12.40;99.90;;;;;;5010052;28;20037;-59
2023/10/13 00:52:50;;;;;;;25.25;11.75;;;12.40;99.90;;;;;;4996931;28;20057;-58
2023/10/13 00:55:22;;;;;;;30.13;12.48;;;12.40;99.90;;;;;;5010938;28;20045;-59
2023/10/13 00:57:57;;;;;;;26.70;10.77;;;12.40;99.90;;;;;;4991678;28;20052;-60
2023/10/13 01:00:28;;;;;;;28.65;11.35;;;12.50;99.90;;;;;;5006372;28;20053;-59
2023/10/13 01:02:56;;;;;;;26.95;11.45;;;12.50;99.90;;;;;;4990583;28;20049;-60
2023/10/13 01:05:26;;;;;;;31.83;10.85;;;12.40;99.90;;;;;;4992443;28;20050;-58
2023/10/13 01:07:54;;;;;;;29.75;11.20;;;12.50;99.90;;;;;;4992163;28;20049;-59
2023/10/13 01:10:25;;;;;;;26.02;9.82;;;12.50;99.90;;;;;;5007645;28;20053;-59
2023/10/13 01:12:59;;;;;;;22.90;9.70;;;12.50;99.90;;;;;;4992848;28;20042;-58
2023/10/13 01:15:29;;;;;;;25.90;9.40;;;12.50;99.90;;;;;;4993809;28;20045;-58
2023/10/13 01:18:12;;;;;;;24.10;9.45;;;12.50;99.90;;;;;;4998920;28;20037;-58
2023/10/13 01:20:45;;;;;;;18.10;7.93;;;12.50;99.90;;;;;;4999061;28;20042;-59
2023/10/13 01:23:18;;;;;;;19.95;8.35;;;12.50;99.90;;;;;;5001397;28;20198;-60
2023/10/13 01:25:48;;;;;;;18.10;6.90;;;12.50;99.90;;;;;;4990079;28;20061;-60
2023/10/13 01:28:16;;;;;;;19.30;6.93;;;12.50;99.90;;;;;;4995947;28;20394;-59
2023/10/13 01:30:50;;;;;;;19.05;7.05;;;12.50;99.90;;;;;;4990904;28;20774;-60
2023/10/13 01:33:28;;;;;;;14.57;6.20;;;12.60;99.90;;;;;;5002109;28;20413;-60
2023/10/13 01:35:58;;;;;;;14.65;6.72;;;12.60;99.90;;;;;;4992123;28;20042;-59
2023/10/13 01:38:27;;;;;;;17.48;6.90;;;12.60;99.90;;;;;;5004648;28;20038;-60
2023/10/13 01:40:56;;;;;;;19.05;6.82;;;12.60;99.90;;;;;;5010476;28;20038;-59
2023/10/13 01:43:25;;;;;;;19.30;6.03;;;12.60;99.90;;;;;;5004478;28;20054;-59
2023/10/13 01:45:53;;;;;;;15.57;5.63;;;12.60;99.90;;;;;;4998635;28;20046;-59
2023/10/13 01:48:21;;;;;;;17.55;6.38;;;12.60;99.90;;;;;;4992621;28;20057;-57
2023/10/13 01:50:55;;;;;;;17.88;6.47;;;12.70;99.90;;;;;;5000528;28;20058;-59
2023/10/13 01:53:24;;;;;;;19.65;7.10;;;12.70;99.90;;;;;;5005003;28;20050;-59
2023/10/13 01:55:51;;;;;;;19.45;6.85;;;12.70;99.90;;;;;;5003668;28;20046;-59
2023/10/13 01:58:22;;;;;;;19.92;6.22;;;12.70;99.90;;;;;;4998829;28;20039;-59
2023/10/13 02:00:51;;;;;;;25.42;7.10;;;12.70;99.90;;;;;;4992096;28;20050;-59
2023/10/13 02:03:21;;;;;;;19.30;6.70;;;12.70;99.90;;;;;;5002338;28;20045;-59
2023/10/13 02:05:53;;;;;;;18.65;6.43;;;12.70;99.90;;;;;;5007400;28;20037;-59
2023/10/13 02:08:23;;;;;;;15.82;5.95;;;12.70;99.90;;;;;;4987643;28;20046;-59
2023/10/13 02:10:53;;;;;;;12.68;5.57;;;12.80;99.90;;;;;;4975605;28;20050;-59
2023/10/13 02:13:22;;;;;;;14.05;5.85;;;12.80;99.90;;;;;;5009059;28;20065;-59
2023/10/13 02:15:57;;;;;;;14.35;5.50;;;12.80;99.90;;;;;;4992439;28;20054;-59
2023/10/13 02:18:28;;;;;;;11.02;4.78;;;12.80;99.90;;;;;;5000742;28;20057;-59
2023/10/13 02:21:04;;;;;;;11.75;5.20;;;12.80;99.90;;;;;;4996405;28;20049;-60
2023/10/13 02:23:31;;;;;;;12.35;4.75;;;12.80;99.90;;;;;;5011394;28;20403;-59
2023/10/13 02:26:10;;;;;;;13.85;4.30;;;12.80;99.90;;;;;;5011485;28;20065;-58
2023/10/13 02:28:39;;;;;;;13.32;5.07;;;12.80;99.90;;;;;;5009789;28;20042;-60
2023/10/13 02:31:07;;;;;;;11.57;4.97;;;12.90;99.90;;;;;;5010884;28;20107;-60
2023/10/13 02:33:36;;;;;;;12.32;4.63;;;12.90;99.90;;;;;;4995273;28;20049;-59
2023/10/13 02:36:07;;;;;;;9.27;4.55;;;12.90;99.90;;;;;;5012528;28;20042;-59
2023/10/13 02:38:45;;;;;;;13.82;4.32;;;12.90;99.90;;;;;;5003730;28;20043;-59
2023/10/13 02:41:27;;;;;;;11.15;4.25;;;12.90;99.90;;;;;;4993542;28;20058;-59
2023/10/13 02:43:56;;;;;;;10.93;4.40;;;12.90;99.90;;;;;;5005235;28;20058;-58
2023/10/13 02:46:30;;;;;;;13.07;4.40;;;12.90;99.90;;;;;;4992511;28;20046;-59
2023/10/13 02:49:01;;;;;;;12.00;3.85;;;12.90;99.90;;;;;;5005394;28;20045;-60
2023/10/13 02:51:35;;;;;;;8.63;3.70;;;12.90;99.90;;;;;;5010630;28;20042;-60
2023/10/13 02:54:11;;;;;;;11.52;3.97;;;12.90;99.90;;;;;;5011875;28;20045;-59
2023/10/13 02:56:56;;;;;;;9.68;3.63;;;12.90;99.90;;;;;;5012268;28;20041;-59
2023/10/13 02:59:34;;;;;;;7.25;2.95;;;12.90;99.90;;;;;;5010147;28;20046;-60
2023/10/13 03:02:17;;;;;;;6.72;3.05;;;12.90;99.90;;;;;;5008114;28;20045;-59
2023/10/13 03:04:49;;;;;;;5.82;2.78;;;12.90;99.90;;;;;;5012135;28;20409;-58
2023/10/13 03:07:28;;;;;;;5.75;2.72;;;12.90;99.90;;;;;;5008674;28;20397;-59
2023/10/13 03:10:00;;;;;;;;;;;12.90;99.90;;;;;;5009297;28;20509;-60
2023/10/13 03:12:33;;;;;;;4.60;2.28;;;12.90;99.90;;;;;;5008992;28;19940;-59
2023/10/13 03:15:23;;;;;;;3.78;2.20;;;12.90;99.90;;;;;;5011064;28;20402;-58
2023/10/13 03:17:54;;;;;;;7.18;2.33;;;12.90;99.90;;;;;;5011952;28;20049;-59
2023/10/13 03:20:24;;;;;;;8.07;1.92;;;12.80;99.90;;;;;;5010705;28;20049;-59
2023/10/13 03:22:53;;;;;;;5.93;2.47;;;12.80;99.90;;;;;;5010501;28;20041;-59
2023/10/13 03:25:29;;;;;;;5.47;2.42;;;12.80;99.90;;;;;;5010366;28;20056;-59
2023/10/13 03:30:44;;;;;;;3.25;1.80;;;12.80;99.90;;;;;;5010477;28;20061;-60
2023/10/13 03:33:13;;;;;;;4.03;1.90;;;12.80;99.90;;;;;;5011792;28;20053;-60
2023/10/13 03:35:41;;;;;;;9.30;2.60;;;12.90;99.90;;;;;;5007953;28;20529;-60
2023/10/13 03:38:20;;;;;;;5.53;2.38;;;12.90;99.90;;;;;;5011192;28;20050;-59
2023/10/13 03:41:18;;;;;;;4.20;2.15;;;12.90;99.90;;;;;;5011447;28;20073;-58
2023/10/13 03:44:30;;;;;;;4.03;2.33;;;12.90;99.90;;;;;;5011502;28;20489;-60
2023/10/13 03:46:30;;;;;;;6.88;2.47;;;12.90;99.90;;;;;;5004598;28;20049;-60
2023/10/13 03:49:01;;;;;;;8.48;2.50;;;13.00;99.90;;;;;;5011379;28;20042;-60
2023/10/13 03:51:33;;;;;;;7.20;2.67;;;13.00;99.90;;;;;;5011534;28;20046;-60
2023/10/13 03:54:07;;;;;;;11.32;3.53;;;13.10;99.90;;;;;;5011455;28;20052;-59
2023/10/13 03:56:38;;;;;;;6.15;3.20;;;13.10;99.90;;;;;;5011614;28;20047;-59
2023/10/13 04:04:11;;;;;;;8.65;3.90;;;13.30;99.90;;;;;;5015293;28;20058;-59
2023/10/13 04:07:38;;;;;;;10.93;3.90;;;13.30;99.90;;;;;;5015331;28;20585;-60
2023/10/13 04:17:40;;;;;;;7.93;4.20;;;13.50;99.90;;;;;;5015505;28;20054;-58
2023/10/13 04:33:43;;;;;;;7.32;3.50;;;13.50;99.90;;;;;;5015061;28;20066;-59
2023/10/13 04:38:59;;;;;;;6.72;3.22;;;13.60;99.90;;;;;;5003880;28;20049;-57
2023/10/13 04:41:37;;;;;;;6.60;3.17;;;13.60;99.90;;;;;;5010314;28;20058;-57
2023/10/13 04:49:49;;;;;;;9.88;4.15;;;13.60;99.90;;;;;;4995802;28;20046;-56
2023/10/13 04:52:44;;;;;;;6.18;3.53;;;13.60;99.90;;;;;;5011104;28;20050;-56
2023/10/13 04:55:43;;;;;;;13.52;4.80;;;13.60;99.90;;;;;;5010809;28;20057;-56
2023/10/13 04:58:14;;;;;;;14.18;5.50;;;13.70;99.90;;;;;;5010729;28;20050;-56
2023/10/13 05:00:54;;;;;;;11.77;5.60;;;13.60;99.90;;;;;;5007106;28;20387;-56
2023/10/13 05:03:53;;;;;;;11.60;5.32;;;13.60;99.90;;;;;;4996116;28;20041;-56
2023/10/13 06:29:07;;;;;;;10.05;4.82;;;13.70;99.90;;;;;;5005889;28;20061;-57
2023/10/13 06:31:36;;;;;;;;;;;13.80;99.90;;;;;;5002754;28;20058;-57
2023/10/13 06:34:04;;;;;;;10.57;5.13;;;13.70;99.90;;;;;;4987332;28;20373;-56
2023/10/13 06:36:33;;;;;;;9.88;4.78;;;13.80;99.90;;;;;;4987503;28;20054;-57
2023/10/13 06:41:47;;;;;;;13.82;5.18;;;13.70;99.90;;;;;;5006811;28;20188;-57
2023/10/13 06:44:16;;;;;;;11.43;4.30;;;13.80;99.90;;;;;;5001115;28;20073;-56
2023/10/13 06:46:44;;;;;;;8.90;4.15;;;13.80;99.90;;;;;;4986649;28;20057;-57
2023/10/13 06:49:13;;;;;;;7.88;4.03;;;13.80;99.90;;;;;;4996236;28;20509;-56
2023/10/13 06:51:42;;;;;;;10.07;4.47;;;13.80;99.90;;;;;;4989679;28;20042;-56
2023/10/13 06:54:25;;;;;;;11.48;4.43;;;13.80;99.90;;;;;;4986404;28;20046;-57
2023/10/13 06:56:53;;;;;;;7.07;4.32;;;13.80;99.90;;;;;;4992428;28;20517;-57
2023/10/13 06:59:26;;;;;;;8.43;4.93;;;13.80;99.90;;;;;;4998507;28;20038;-57
2023/10/13 07:02:01;;;;;;;5.53;4.25;;;13.80;99.90;;;;;;5000218;28;20049;-56
2023/10/13 07:04:42;;;;;;;8.27;4.43;;;13.80;99.90;;;;;;4992633;28;20398;-56
2023/10/13 07:07:11;;;;;;;6.00;3.58;;;13.80;99.90;;;;;;4996070;28;20054;-56
2023/10/13 07:09:49;;;;;;;8.95;4.47;;;13.80;99.90;;;;;;5000741;28;20048;-57
2023/10/13 07:12:22;;;;;;;8.60;4.72;;;13.80;99.90;;;;;;5005036;28;20061;-56
2023/10/13 07:14:53;;;;;;;6.78;4.05;;;13.80;99.90;;;;;;5002449;28;20046;-56
2023/10/13 07:17:24;;;;;;;5.53;3.28;;;13.90;99.90;;;;;;4985960;28;20058;-56
2023/10/13 07:20:06;;;;;;;7.28;3.72;;;13.80;99.90;;;;;;4998952;28;20049;-56
2023/10/13 07:22:39;;;;;;;5.43;3.63;;;13.80;99.90;;;;;;5004146;28;20045;-56
2023/10/13 07:25:08;;;;;;;7.28;3.40;;;13.80;99.90;;;;;;5004140;28;20046;-56
2023/10/13 07:27:36;;;;;;;5.95;3.80;;;13.90;99.90;;;;;;5004603;28;20505;-56
2023/10/13 07:30:14;;;;;;;4.68;2.63;;;13.90;99.90;;;;;;5004114;28;20548;-56
2023/10/13 07:32:46;;;;;;;4.03;2.13;;;13.90;99.90;;;;;;4998268;28;20367;-55
2023/10/13 07:35:17;;;;;;;4.75;2.67;;;13.90;99.90;;;;;;4993284;28;20057;-56
2023/10/13 07:37:48;;;;;;;4.82;2.60;;;13.90;99.90;;;;;;4995991;28;20485;-56
2023/10/13 07:43:09;;;;;;;4.22;2.63;;;14.00;99.90;;;;;;5008312;28;20046;-56
2023/10/13 07:45:38;;;;;;;3.35;2.05;;;14.00;99.90;;;;;;5007836;28;20086;-56
2023/10/13 07:48:20;;;;;;;2.72;1.88;;;14.00;99.90;;;;;;4987139;28;20588;-56
2023/10/13 07:51:01;;;;;;;4.88;2.13;;;14.00;99.90;;;;;;4988776;28;20049;-56
2023/10/13 07:53:34;;;;;;;3.50;2.25;;;14.00;99.90;;;;;;5001614;28;20065;-56
2023/10/13 07:56:04;;;;;;;3.58;1.77;;;14.00;99.90;;;;;;5001633;28;20064;-56
2023/10/13 07:58:34;;;;;;;1.88;1.42;;;14.00;99.90;;;;;;4997280;28;20034;-56
2023/10/13 08:01:08;;;;;;;2.88;1.98;;;14.00;99.90;;;;;;4998985;28;20875;-57
2023/10/13 08:03:45;;;;;;;4.20;2.22;;;14.00;99.90;;;;;;5000390;28;20057;-56
2023/10/13 08:08:55;;;;;;;3.03;2.20;;;14.10;99.90;;;;;;4998556;28;20054;-56
2023/10/13 08:13:59;;;;;;;4.40;2.33;;;14.10;99.90;;;;;;4986679;28;20057;-58
2023/10/13 08:16:52;;;;;;;3.20;2.50;;;14.10;99.90;;;;;;4990747;28;20199;-55
2023/10/13 08:19:26;;;;;;;5.47;2.47;;;14.00;99.90;;;;;;4994391;28;20383;-56
2023/10/13 08:21:59;;;;;;;5.55;2.33;;;14.10;99.90;;;;;;4992915;28;20478;-56
2023/10/13 08:30:26;;;;;;;3.83;2.20;;;14.20;99.90;;;;;;5004696;28;20046;-56
2023/10/13 08:33:04;;;;;;;3.08;2.20;;;14.20;99.90;;;;;;4997226;28;20508;-55
2023/10/13 08:35:35;;;;;;;9.07;5.10;;;14.20;99.90;;;;;;4989054;28;20051;-55
2023/10/13 08:38:04;;;;;;;6.68;3.47;;;14.20;99.90;;;;;;4998092;28;20042;-55
2023/10/13 08:41:29;;;;;;;4.38;2.45;;;14.20;99.90;;;;;;5000387;28;20053;-56
2023/10/13 08:43:45;;;;;;;4.90;2.70;;;14.20;99.90;;;;;;4996530;28;20051;-56
2023/10/13 08:46:27;;;;;;;5.28;2.42;;;14.30;99.90;;;;;;5009399;28;20046;-56
2023/10/13 08:49:15;;;;;;;4.00;2.67;;;14.30;99.90;;;;;;5005500;28;20041;-56
2023/10/13 08:51:44;;;;;;;8.02;2.88;;;14.30;99.90;;;;;;4999869;28;20045;-56
2023/10/13 08:54:20;;;;;;;4.15;2.42;;;14.30;99.90;;;;;;4997800;28;20065;-56
2023/10/13 08:57:03;;;;;;;3.42;2.60;;;14.30;99.90;;;;;;5003361;28;20030;-57
2023/10/13 08:59:38;;;;;;;4.75;2.42;;;14.40;99.90;;;;;;5010664;28;20045;-56
2023/10/13 09:02:15;;;;;;;5.75;2.75;;;14.50;99.90;;;;;;4997989;28;20478;-56
2023/10/13 09:04:44;;;;;;;6.93;2.40;;;14.60;99.90;;;;;;5006453;28;20050;-56
2023/10/13 09:07:15;;;;;;;3.10;2.30;;;14.60;99.90;;;;;;5005699;28;20077;-57
2023/10/13 09:12:18;;;;;;;4.35;2.30;;;14.70;99.90;;;;;;4993265;28;20061;-56
2023/10/13 09:14:57;;;;;;;2.50;1.88;;;14.60;99.90;;;;;;4999671;28;20038;-56
2023/10/13 09:17:39;;;;;;;2.33;2.10;;;14.60;99.90;;;;;;5006069;28;20050;-57
2023/10/13 09:23:07;;;;;;;2.40;1.55;;;14.70;99.90;;;;;;4998717;28;20034;-57
2023/10/13 09:25:37;;;;;;;2.05;1.83;;;14.70;99.90;;;;;;5003098;28;20042;-57
2023/10/13 09:28:26;;;;;;;;;;;14.70;99.90;;;;;;4997945;28;20052;-56
2023/10/13 09:30:58;;;;;;;2.95;1.80;;;14.70;99.90;;;;;;5001368;28;19941;-55
2023/10/13 09:33:32;;;;;;;3.60;1.67;;;14.70;99.90;;;;;;5000915;28;20049;-56
2023/10/13 09:36:04;;;;;;;2.72;1.88;;;14.70;99.90;;;;;;5000168;28;20524;-56
2023/10/13 09:38:36;;;;;;;3.28;2.40;;;14.70;99.90;;;;;;5004657;28;20054;-56
2023/10/13 09:41:21;;;;;;;2.67;2.30;;;14.70;99.90;;;;;;4999092;28;20406;-56
2023/10/13 09:43:51;;;;;;;2.33;2.03;;;14.70;99.90;;;;;;4993334;28;20054;-55
2023/10/13 09:46:23;;;;;;;4.22;2.00;;;14.70;99.90;;;;;;5001624;28;20109;-57
2023/10/13 09:49:08;;;;;;;1.50;1.30;;;14.70;99.90;;;;;;5001544;28;20506;-56
2023/10/13 09:51:36;;;;;;;2.42;1.33;;;14.80;99.90;;;;;;5001116;28;20042;-55
2023/10/13 09:54:19;;;;;;;2.03;1.60;;;14.80;99.90;;;;;;4995604;28;20061;-55
2023/10/13 09:57:10;;;;;;;4.60;2.10;;;14.80;99.90;;;;;;4998306;28;20060;-56
2023/10/13 09:59:53;;;;;;;3.33;2.17;;;14.80;99.90;;;;;;5002781;28;20050;-56
2023/10/13 10:02:27;;;;;;;1.90;1.50;;;14.80;99.90;;;;;;4972593;28;20062;-56
2023/10/13 10:05:12;;;;;;;1.40;1.00;;;14.80;99.90;;;;;;4992931;28;20050;-56
2023/10/13 10:07:43;;;;;;;5.30;1.08;;;14.80;99.90;;;;;;5002796;28;20058;-56
2023/10/13 10:10:12;;;;;;;1.23;1.13;;;14.70;99.90;;;;;;5004390;28;20050;-56
2023/10/13 10:12:52;;;;;;;3.13;1.40;;;14.60;99.90;;;;;;4995273;28;20046;-56
2023/10/13 10:15:35;;;;;;;2.65;1.55;;;14.60;99.90;;;;;;4996510;28;20042;-55
2023/10/13 10:18:03;;;;;;;1.88;1.75;;;14.70;99.90;;;;;;5007078;28;20390;-56
2023/10/13 10:20:44;;;;;;;8.82;2.22;;;14.60;99.90;;;;;;4998613;28;20430;-55
2023/10/13 10:23:24;;;;;;;2.58;2.28;;;14.50;99.90;;;;;;4995212;28;20052;-55
2023/10/13 10:25:51;;;;;;;3.00;2.50;;;14.50;99.90;;;;;;4991396;28;20047;-55
2023/10/13 10:28:19;;;;;;;3.63;2.60;;;14.60;99.90;;;;;;4997533;28;20465;-57
2023/10/13 10:30:47;;;;;;;3.53;2.50;;;14.60;99.90;;;;;;4993876;28;20042;-57
2023/10/13 10:33:15;;;;;;;3.13;2.83;;;14.60;99.90;;;;;;4996819;28;20409;-57
2023/10/13 10:35:46;;;;;;;2.83;2.63;;;14.50;99.90;;;;;;4992536;28;20406;-57
2023/10/13 10:38:24;;;;;;;4.05;3.35;;;14.50;99.90;;;;;;4990547;28;20050;-57
2023/10/13 10:40:57;;;;;;;5.20;3.50;;;14.50;99.90;;;;;;4995601;28;20044;-57
2023/10/13 10:43:45;;;;;;;3.92;2.05;;;14.50;99.90;;;;;;5001851;28;20058;-58
2023/10/13 10:46:16;;;;;;;2.72;2.08;;;14.50;99.90;;;;;;5002696;28;20045;-57
2023/10/13 10:48:45;;;;;;;4.75;1.98;;;14.50;99.90;;;;;;4989013;28;20042;-57
2023/10/13 10:51:21;;;;;;;2.03;1.83;;;14.50;99.90;;;;;;5002646;28;20057;-56
2023/10/13 10:53:53;;;;;;;3.00;2.63;;;14.50;99.90;;;;;;4991258;28;20050;-56
2023/10/13 10:56:37;;;;;;;2.47;2.10;;;14.60;99.90;;;;;;4993007;28;20505;-56
2023/10/13 10:59:18;;;;;;;5.13;2.88;;;14.60;99.90;;;;;;5003861;28;20046;-56
2023/10/13 11:01:46;;;;;;;3.67;2.60;;;14.70;99.90;;;;;;4992323;28;20054;-56
2023/10/13 11:06:55;;;;;;;4.00;3.63;;;14.70;99.90;;;;;;4988643;28;20418;-55
2023/10/13 11:09:37;;;;;;;3.88;2.72;;;14.70;99.90;;;;;;5005942;28;20066;-56
2023/10/13 11:12:15;;;;;;;3.17;2.88;;;14.80;99.90;;;;;;4991641;28;20053;-58
2023/10/13 11:14:47;;;;;;;4.75;2.33;;;14.80;99.90;;;;;;4999998;28;20065;-56
2023/10/13 11:20:16;;;;;;;2.33;2.13;;;14.80;99.90;;;;;;4988858;28;20684;-55
2023/10/13 11:22:49;;;;;;;2.00;1.90;;;14.70;99.90;;;;;;4992168;28;20034;-56
2023/10/13 11:25:23;;;;;;;3.38;3.08;;;14.70;99.90;;;;;;4988555;28;20521;-56
2023/10/13 11:30:55;;;;;;;2.58;2.30;;;14.70;99.90;;;;;;4993862;28;20042;-56
2023/10/13 11:33:17;;;;;;;7.82;3.10;;;14.70;99.90;;;;;;4988570;28;20050;-55
2023/10/13 11:35:49;;;;;;;3.45;2.67;;;14.60;99.90;;;;;;4988080;28;21281;-56
2023/10/13 11:38:27;;;;;;;2.63;2.42;;;14.50;99.90;;;;;;4994105;28;20052;-55
2023/10/13 11:48:46;;;;;;;1.48;1.38;;;14.20;99.90;;;;;;4997267;28;20034;-55
2023/10/13 11:51:23;;;;;;;2.92;1.00;;;14.10;99.90;;;;;;4996804;28;20046;-58
2023/10/13 11:53:52;;;;;;;1.02;1.00;;;14.00;99.90;;;;;;4992124;28;20045;-57
2023/10/13 11:56:20;;;;;;;1.58;0.80;;;13.90;99.90;;;;;;4992462;28;20050;-57
2023/10/13 11:58:49;;;;;;;4.05;1.20;;;13.90;99.90;;;;;;5000518;28;20662;-58
2023/10/13 12:12:00;;;;;;;13.27;4.15;;;13.60;99.90;;;;;;4971845;28;20415;-56
2023/10/13 12:14:29;;;;;;;10.10;4.60;;;13.50;99.90;;;;;;4989009;28;20057;-58
2023/10/13 12:17:03;;;;;;;5.22;2.88;;;13.30;99.90;;;;;;4988451;28;20053;-58
2023/10/13 12:19:34;;;;;;;6.20;2.33;;;13.20;99.90;;;;;;4995666;28;20042;-57
2023/10/13 12:22:05;;;;;;;7.57;2.25;;;13.00;99.90;;;;;;4994609;28;20045;-57
2023/10/13 12:27:18;;;;;;;5.93;1.67;;;12.80;99.90;;;;;;5009301;28;19945;-57
2023/10/13 12:29:56;;;;;;;12.40;1.83;;;12.60;99.90;;;;;;4999526;28;20046;-57
2023/10/13 12:32:25;;;;;;;12.40;2.15;;;12.60;99.90;;;;;;5009981;28;20046;-58
2023/10/13 12:51:20;;;;;;;8.70;1.63;;;12.50;99.90;;;;;;5011299;28;20053;-58
2023/10/13 12:53:52;;;;;;;8.13;1.63;;;12.50;99.90;;;;;;5008546;28;20050;-56
2023/10/13 12:56:26;;;;;;;8.27;1.35;;;12.40;99.90;;;;;;5001543;28;20049;-56
2023/10/13 12:58:55;;;;;;;5.97;1.55;;;12.40;99.90;;;;;;5000115;28;20061;-56
2023/10/13 13:01:25;;;;;;;4.63;1.17;;;12.30;99.90;;;;;;5007005;28;20072;-56
2023/10/13 13:03:56;;;;;;;2.97;1.10;;;12.30;99.90;;;;;;5006097;28;20058;-56
2023/10/13 13:06:26;;;;;;;4.60;0.80;;;12.30;99.90;;;;;;5000266;28;20046;-55
2023/10/13 13:08:58;;;;;;;118.95;25.98;;;12.20;99.90;;;;;;4997529;28;20057;-55
2023/10/13 13:11:29;;;;;;;66.60;13.35;;;12.10;99.90;;;;;;4998061;28;20038;-55
2023/10/13 13:13:57;;;;;;;34.33;7.85;;;11.90;99.90;;;;;;4993721;28;20058;-56
2023/10/13 13:16:30;;;;;;;33.15;7.22;;;12.00;99.90;;;;;;4997004;28;20057;-56
2023/10/13 13:18:58;;;;;;;10.20;2.88;;;11.90;99.90;;;;;;4999018;28;20046;-56
2023/10/13 13:21:27;;;;;;;6.95;1.63;;;11.90;99.90;;;;;;4992505;28;20042;-56
2023/10/13 13:23:54;;;;;;;9.98;2.20;;;11.80;99.90;;;;;;5004355;28;20046;-57
2023/10/13 13:26:23;;;;;;;8.02;3.42;;;11.80;99.90;;;;;;4995186;28;20045;-56
2023/10/13 13:28:51;;;;;;;10.65;4.53;;;11.80;99.90;;;;;;4992010;28;20039;-56
2023/10/13 13:31:25;;;;;;;12.93;6.78;;;11.70;99.90;;;;;;4989691;28;20057;-56
2023/10/13 13:33:53;;;;;;;16.15;6.65;;;11.70;99.90;;;;;;4993696;28;20050;-56
2023/10/13 13:36:22;;;;;;;9.45;6.03;;;11.60;99.90;;;;;;4995382;28;20046;-57
2023/10/13 13:38:51;;;;;;;8.25;4.72;;;11.60;99.90;;;;;;4991533;28;20053;-57
2023/10/13 13:41:18;;;;;;;18.45;4.97;;;11.60;99.90;;;;;;4991487;28;20050;-57
2023/10/13 13:46:18;;;;;;;14.90;3.28;;;11.50;99.90;;;;;;5005286;28;20042;-55
2023/10/13 13:48:47;;;;;;;9.02;4.07;;;11.50;99.90;;;;;;5006195;28;20049;-56
2023/10/13 13:51:15;;;;;;;9.67;2.67;;;11.40;99.90;;;;;;5001383;28;20050;-56
2023/10/13 13:53:50;;;;;;;8.80;2.17;;;11.40;99.90;;;;;;4992484;28;20299;-56
2023/10/13 13:56:18;;;;;;;13.25;2.40;;;11.40;99.90;;;;;;4999488;28;20054;-56
2023/10/13 13:58:49;;;;;;;10.35;2.28;;;11.30;99.90;;;;;;4999188;28;20045;-56
2023/10/13 14:01:18;;;;;;;8.00;1.92;;;11.30;99.90;;;;;;4994011;28;20050;-55
2023/10/13 14:03:50;;;;;;;6.20;1.85;;;11.40;99.90;;;;;;4996370;28;20490;-56
2023/10/13 14:06:23;;;;;;;11.10;2.55;;;11.40;99.90;;;;;;5003480;28;20050;-55
2023/10/13 14:08:55;;;;;;;8.38;2.00;;;11.40;99.90;;;;;;5000718;28;20050;-55
2023/10/13 14:14:13;;;;;;;8.65;2.53;;;11.40;99.90;;;;;;4997341;28;20038;-55
2023/10/13 14:16:49;;;;;;;13.30;2.00;;;11.40;99.90;;;;;;5004453;28;20049;-55
2023/10/13 14:19:26;;;;;;;10.43;1.75;;;11.50;99.90;;;;;;5000701;28;20064;-56
2023/10/13 14:22:06;;;;;;;13.55;1.95;;;11.50;99.90;;;;;;4998136;28;20034;-55
2023/10/13 14:24:35;;;;;;;10.10;2.00;;;11.50;99.90;;;;;;4989903;28;20501;-56
2023/10/13 14:27:12;;;;;;;15.68;2.17;;;11.50;99.90;;;;;;5004338;28;20046;-56
2023/10/13 14:29:40;;;;;;;6.43;2.03;;;11.60;99.90;;;;;;5008891;28;20056;-55
2023/10/13 14:32:15;;;;;;;15.05;2.70;;;11.60;99.90;;;;;;5001578;28;20054;-56
2023/10/13 14:34:45;;;;;;;9.85;1.60;;;11.60;99.90;;;;;;4991396;28;20061;-57
2023/10/13 14:37:14;;;;;;;12.25;1.85;;;11.60;99.90;;;;;;4995244;28;20042;-57
2023/10/13 14:39:41;;;;;;;6.38;1.88;;;11.60;99.90;;;;;;4990419;28;20038;-57
2023/10/13 14:42:09;;;;;;;10.52;1.55;;;11.60;99.90;;;;;;4996898;28;20548;-56
2023/10/13 14:44:37;;;;;;;14.90;1.70;;;11.60;99.90;;;;;;4999129;28;20584;-56
2023/10/13 14:47:05;;;;;;;9.60;1.92;;;11.60;99.90;;;;;;4991288;28;20046;-56
2023/10/13 14:49:35;;;;;;;14.50;2.10;;;11.60;99.90;;;;;;4989569;28;20058;-56
2023/10/13 14:52:03;;;;;;;17.50;1.98;;;11.60;99.90;;;;;;4989666;28;20394;-57
2023/10/13 14:54:34;;;;;;;11.43;1.83;;;11.50;99.90;;;;;;4990906;28;20295;-56
2023/10/13 14:57:03;;;;;;;13.25;2.55;;;11.50;99.90;;;;;;4992993;28;20038;-56
2023/10/13 14:59:33;;;;;;;12.70;2.05;;;11.40;99.90;;;;;;4997836;28;20056;-56
2023/10/13 15:02:01;;;;;;;16.08;2.00;;;11.30;99.90;;;;;;4998944;28;20050;-58
2023/10/13 15:04:33;;;;;;;15.85;2.92;;;11.30;99.90;;;;;;4992456;28;20046;-55
2023/10/13 15:07:01;;;;;;;21.02;2.88;;;11.30;99.90;;;;;;4994984;28;20042;-56
2023/10/13 15:09:30;;;;;;;19.42;2.55;;;11.30;99.90;;;;;;4997762;28;20425;-57
2023/10/13 15:11:57;;;;;;;14.77;2.22;;;11.30;99.90;;;;;;4991151;28;20426;-56
2023/10/13 15:14:25;;;;;;;14.23;2.00;;;11.30;99.90;;;;;;5001565;28;20057;-57
2023/10/13 15:16:53;;;;;;;19.73;2.30;;;11.30;99.90;;;;;;4991799;28;20042;-56
2023/10/13 15:19:21;;;;;;;14.18;2.17;;;11.30;99.90;;;;;;4991859;28;20046;-57
2023/10/13 15:21:52;;;;;;;15.70;3.60;;;11.20;99.90;;;;;;5001068;28;20049;-57
2023/10/13 15:24:25;;;;;;;19.67;2.35;;;11.30;99.90;;;;;;5004282;28;20038;-57
2023/10/13 15:27:08;;;;;;;13.82;2.70;;;11.30;99.90;;;;;;4992341;28;20383;-57
2023/10/13 15:29:36;;;;;;;15.23;2.83;;;11.30;99.90;;;;;;4997125;28;20052;-56
2023/10/13 15:32:41;;;;;;;15.68;2.05;;;11.30;99.90;;;;;;4993863;28;20057;-57
2023/10/13 15:34:55;;;;;;;;;;;11.20;99.90;;;;;;4996493;28;20117;-57
2023/10/13 15:37:25;;;;;;;16.63;2.60;;;11.20;99.90;;;;;;4989310;28;19933;-57
2023/10/13 15:39:54;;;;;;;16.80;1.88;;;11.30;99.90;;;;;;5000963;28;20046;-57
2023/10/13 15:42:22;;;;;;;12.07;2.13;;;11.30;99.90;;;;;;5001059;28;20053;-57
2023/10/13 15:44:50;;;;;;;15.52;2.03;;;11.30;99.90;;;;;;5001518;28;20057;-57
2023/10/13 15:47:19;;;;;;;9.40;1.92;;;11.30;99.90;;;;;;5000664;28;20489;-57
2023/10/13 15:49:49;;;;;;;16.50;1.83;;;11.30;99.90;;;;;;4986716;28;20050;-57
2023/10/13 15:52:18;;;;;;;23.52;2.90;;;11.30;99.90;;;;;;5004030;28;20049;-57
2023/10/13 15:54:46;;;;;;;18.93;2.33;;;11.20;99.90;;;;;;4995533;28;20050;-57
2023/10/13 15:57:16;;;;;;;13.45;1.90;;;11.10;99.90;;;;;;4992204;28;20296;-57
2023/10/13 15:59:46;;;;;;;10.00;1.95;;;11.10;99.90;;;;;;5007652;28;20045;-57
2023/10/13 16:02:16;;;;;;;11.02;1.70;;;11.10;99.90;;;;;;5009754;28;20046;-56
2023/10/13 16:04:44;;;;;;;10.88;1.77;;;11.10;99.90;;;;;;5011329;28;20054;-55
2023/10/13 16:07:13;;;;;;;17.45;2.65;;;11.10;99.90;;;;;;4995597;28;20053;-56
2023/10/13 16:09:41;;;;;;;17.73;2.15;;;11.00;99.90;;;;;;5007726;28;20050;-56
2023/10/13 16:12:10;;;;;;;8.82;1.55;;;11.00;99.90;;;;;;5011039;28;20053;-57
2023/10/13 16:14:40;;;;;;;;;;;10.90;99.90;;;;;;4996471;28;20056;-57
2023/10/13 16:17:08;;;;;;;11.98;1.75;;;10.90;99.90;;;;;;5009004;28;19929;-57
2023/10/13 16:19:36;;;;;;;7.05;1.70;;;10.90;99.90;;;;;;4995924;28;20054;-57
2023/10/13 16:22:05;;;;;;;12.18;2.13;;;10.80;99.90;;;;;;4992296;28;20054;-57
2023/10/13 16:24:34;;;;;;;16.52;2.00;;;10.80;99.90;;;;;;5008769;28;20502;-57
2023/10/13 16:27:02;;;;;;;12.90;2.22;;;10.70;99.90;;;;;;4990624;28;20054;-56
2023/10/13 16:29:31;;;;;;;14.77;2.10;;;10.70;99.90;;;;;;5006669;28;20038;-57